createdAt,value
2022-08-05T00:02:55.810Z,36.53
2022-08-05T00:08:03.302Z,36.61
2022-08-05T00:13:10.171Z,36.42
2022-08-05T00:18:21.712Z,36.40
2022-08-05T00:23:44.565Z,36.49
2022-08-05T00:28:31.805Z,36.52
2022-08-05T00:34:54.674Z,36.92
2022-08-05T00:38:46.245Z,37.32
2022-08-05T00:43:53.540Z,37.45
2022-08-05T00:49:00.779Z,37.48
2022-08-05T00:54:08.045Z,37.69
2022-08-05T00:59:15.258Z,37.97
2022-08-05T01:04:26.874Z,38.08
2022-08-05T01:09:30.473Z,38.39
2022-08-05T01:14:37.081Z,38.63
2022-08-05T01:20:02.424Z,38.66
2022-08-05T01:24:51.595Z,38.71
2022-08-05T01:29:58.940Z,38.79
2022-08-05T01:35:10.567Z,38.98
2022-08-05T01:40:13.746Z,39.07
2022-08-05T01:45:21.021Z,39.23
2022-08-05T01:50:28.574Z,39.26
2022-08-05T01:55:36.111Z,39.30
2022-08-05T02:00:42.737Z,39.32
2022-08-05T02:05:49.949Z,39.44
2022-08-05T02:10:57.186Z,39.50
2022-08-05T02:16:04.462Z,39.44
2022-08-05T02:21:15.191Z,39.44
2022-08-05T02:26:18.910Z,39.51
2022-08-05T02:31:26.175Z,39.70
2022-08-05T02:36:33.446Z,39.81
2022-08-05T02:41:58.066Z,40.00
2022-08-05T02:46:58.250Z,39.90
2022-08-05T02:52:02.804Z,40.04
2022-08-05T02:57:02.418Z,40.41
2022-08-05T03:02:09.700Z,40.54
2022-08-05T03:07:48.430Z,40.56
2022-08-05T03:12:24.164Z,41.34
2022-08-05T03:17:31.458Z,41.87
2022-08-05T03:22:38.638Z,41.83
2022-08-05T03:27:59.086Z,41.99
2022-08-05T03:32:53.009Z,42.32
2022-08-05T03:38:00.237Z,42.59
2022-08-05T03:43:58.986Z,42.59
2022-08-05T03:48:14.668Z,42.69
2022-08-05T03:55:34.250Z,42.59
2022-08-05T03:58:29.342Z,42.38
2022-08-05T04:03:38.101Z,42.39
2022-08-05T04:08:43.570Z,42.31
2022-08-05T04:13:53.411Z,42.16
2022-08-05T04:18:58.859Z,41.74
2022-08-05T04:24:07.086Z,41.60
2022-08-05T04:29:13.253Z,40.91
2022-08-05T04:34:32.658Z,40.45
2022-08-05T04:39:27.951Z,40.68
2022-08-05T04:44:34.914Z,40.10
2022-08-05T04:50:02.533Z,39.21
2022-08-05T04:54:49.576Z,39.88
2022-08-05T04:59:56.572Z,39.97
2022-08-05T05:05:03.853Z,40.07
2022-08-05T05:10:11.127Z,39.99
2022-08-05T05:15:56.974Z,40.21
2022-08-05T05:20:28.618Z,40.65
2022-08-05T05:25:40.480Z,40.96
2022-08-05T05:30:40.095Z,41.14
2022-08-05T05:35:47.927Z,41.23
2022-08-05T05:40:54.558Z,41.48
2022-08-05T05:46:01.769Z,41.93
2022-08-05T05:51:15.469Z,42.14
2022-08-05T05:56:16.225Z,42.19
2022-08-05T06:01:23.581Z,42.33
2022-08-05T06:06:33.260Z,42.24
2022-08-05T06:11:39.336Z,42.26
2022-08-05T06:16:45.271Z,42.10
2022-08-05T06:21:52.537Z,42.10
2022-08-05T06:26:59.757Z,42.08
2022-08-05T06:32:20.886Z,42.14
2022-08-05T06:37:14.203Z,42.17
2022-08-05T06:42:21.414Z,42.25
2022-08-05T06:48:11.843Z,42.09
2022-08-05T06:52:37.067Z,42.18
2022-08-05T06:58:03.713Z,42.49
2022-08-05T07:02:53.818Z,42.08
2022-08-05T07:07:57.605Z,42.12
2022-08-05T07:13:04.874Z,43.02
2022-08-05T07:18:17.651Z,43.02
2022-08-05T07:23:26.479Z,43.21
2022-08-05T07:28:26.660Z,43.58
2022-08-05T07:33:37.002Z,44.27
2022-08-05T07:38:43.094Z,44.53
2022-08-05T07:43:48.302Z,43.75
2022-08-05T07:49:02.903Z,44.13
2022-08-05T07:54:02.722Z,45.13
2022-08-05T07:59:09.913Z,44.82
2022-08-05T08:04:17.203Z,44.68
2022-08-05T08:09:24.451Z,44.82
2022-08-05T08:14:31.649Z,44.86
2022-08-05T08:20:22.635Z,45.09
2022-08-05T08:24:51.248Z,45.41
2022-08-05T08:30:05.361Z,46.11
2022-08-05T08:35:00.638Z,46.17
2022-08-05T08:40:07.862Z,46.15
2022-08-05T08:45:23.839Z,46.55
2022-08-05T08:50:52.600Z,46.07
2022-08-05T08:56:01.964Z,46.37
2022-08-05T09:00:36.971Z,45.61
2022-08-05T09:06:07.928Z,44.94
2022-08-05T09:10:51.232Z,44.78
2022-08-05T09:15:58.523Z,44.47
2022-08-05T09:21:05.689Z,44.42
2022-08-05T09:26:20.517Z,43.95
2022-08-05T09:32:38.671Z,43.72
2022-08-05T09:36:33.543Z,43.50
2022-08-05T09:41:38.266Z,43.83
2022-08-05T09:46:51.728Z,44.32
2022-08-05T09:51:49.717Z,43.49
2022-08-05T09:56:57.649Z,43.52
2022-08-05T10:02:03.672Z,43.31
2022-08-05T10:07:25.032Z,43.73
2022-08-05T10:12:30.948Z,43.65
2022-08-05T10:17:37.840Z,43.73
2022-08-05T10:22:37.691Z,43.45
2022-08-05T10:28:09.239Z,43.42
2022-08-05T10:33:02.068Z,43.40
2022-08-05T10:37:54.867Z,43.20
2022-08-05T10:43:02.104Z,43.10
2022-08-05T10:48:31.508Z,43.07
2022-08-05T10:53:17.494Z,43.02
2022-08-05T10:58:35.726Z,43.11
2022-08-05T11:03:31.107Z,43.12
2022-08-05T11:08:39.338Z,43.02
2022-08-05T11:13:54.995Z,43.03
2022-08-05T11:18:52.762Z,43.02
2022-08-05T11:24:04.751Z,42.98
2022-08-05T11:29:12.668Z,43.00
2022-08-05T11:34:14.808Z,43.31
2022-08-05T11:39:21.723Z,43.35
2022-08-05T11:44:40.752Z,43.15
2022-08-05T11:49:36.175Z,43.17
2022-08-05T11:54:43.533Z,43.18
2022-08-05T11:59:50.897Z,43.05
2022-08-05T12:04:59.204Z,43.15
2022-08-05T12:10:09.556Z,43.27
2022-08-05T12:15:16.651Z,43.14
2022-08-05T12:20:28.803Z,43.61
2022-08-05T12:25:28.569Z,43.35
2022-08-05T12:30:34.000Z,43.53
2022-08-05T12:35:43.105Z,43.38
2022-08-05T12:40:48.458Z,43.30
2022-08-05T12:45:55.737Z,43.28
2022-08-05T12:51:02.939Z,43.22
2022-08-05T12:56:34.330Z,43.39
2022-08-05T13:02:01.963Z,43.34
2022-08-05T13:06:24.540Z,43.56
2022-08-05T13:12:02.352Z,43.45
2022-08-05T13:16:39.072Z,43.42
2022-08-05T13:21:52.337Z,43.29
2022-08-05T13:26:53.506Z,43.24
2022-08-05T13:32:04.267Z,43.25
2022-08-05T13:37:07.911Z,43.22
2022-08-05T13:42:15.408Z,43.32
2022-08-05T13:47:36.142Z,43.47
2022-08-05T13:52:29.613Z,43.65
2022-08-05T13:57:50.573Z,43.55
2022-08-05T14:02:44.113Z,43.54
2022-08-05T14:08:01.010Z,43.74
2022-08-05T14:12:59.660Z,43.53
2022-08-05T14:18:06.499Z,43.51
2022-08-05T14:23:13.689Z,43.46
2022-08-05T14:28:26.397Z,43.46
2022-08-05T14:33:32.442Z,43.35
2022-08-05T14:38:36.410Z,43.28
2022-08-05T14:43:57.779Z,43.27
2022-08-05T14:48:50.424Z,43.24
2022-08-05T14:54:26.152Z,43.66
2022-08-05T14:59:04.803Z,43.96
2022-08-05T15:04:12.041Z,43.98
2022-08-05T15:09:52.044Z,44.04
2022-08-05T15:14:35.097Z,44.13
2022-08-05T15:19:33.816Z,44.12
2022-08-05T15:24:41.073Z,44.04
2022-08-05T15:29:48.996Z,43.96
2022-08-05T15:34:55.552Z,44.08
2022-08-05T15:40:59.775Z,44.24
2022-08-05T15:45:10.009Z,44.28
2022-08-05T15:50:17.204Z,44.43
2022-08-05T15:56:01.339Z,45.19
2022-08-05T16:00:50.196Z,44.57
2022-08-05T16:05:39.169Z,46.40
2022-08-05T16:10:46.249Z,47.20
2022-08-05T16:15:53.519Z,45.42
2022-08-05T16:21:03.966Z,46.74
2022-08-05T16:26:07.928Z,48.95
2022-08-05T16:31:15.198Z,48.08
2022-08-05T16:36:23.904Z,48.60
2022-08-05T16:42:14.590Z,48.41
2022-08-05T16:46:36.968Z,48.95
2022-08-05T16:51:50.988Z,48.76
2022-08-05T16:56:51.940Z,47.70
2022-08-05T17:02:00.874Z,47.26
2022-08-05T17:07:11.491Z,46.70
2022-08-05T17:12:13.233Z,47.42
2022-08-05T17:17:20.517Z,46.83
2022-08-05T17:22:28.078Z,46.81
2022-08-05T17:27:34.930Z,46.26
2022-08-05T17:32:42.347Z,45.55
2022-08-05T17:37:49.446Z,45.96
2022-08-05T17:42:56.615Z,45.98
2022-08-05T17:48:03.901Z,45.71
2022-08-05T17:53:11.149Z,45.54
2022-08-05T17:58:21.718Z,45.46
2022-08-05T18:03:58.642Z,45.30
2022-08-05T18:08:32.922Z,45.18
2022-08-05T18:13:43.808Z,45.14
2022-08-05T18:18:47.966Z,44.99
2022-08-05T18:23:54.669Z,44.90
2022-08-05T18:29:01.871Z,44.83
2022-08-05T18:34:11.977Z,44.16
2022-08-05T18:39:42.220Z,44.68
2022-08-05T18:44:32.953Z,44.11
2022-08-05T18:49:30.868Z,43.64
2022-08-05T18:54:41.418Z,43.65
2022-08-05T19:00:03.129Z,43.03
2022-08-05T19:05:02.073Z,43.33
2022-08-05T19:10:01.022Z,43.85
2022-08-05T19:15:25.029Z,43.86
2022-08-05T19:20:16.370Z,43.46
2022-08-05T19:25:30.084Z,43.90
2022-08-05T19:30:31.608Z,42.71
2022-08-05T19:35:56.013Z,42.92
2022-08-05T19:40:46.550Z,40.60
2022-08-05T19:45:54.763Z,41.86
2022-08-05T19:51:01.445Z,40.71
2022-08-05T19:56:14.878Z,41.39
2022-08-05T20:01:17.541Z,41.98
2022-08-05T20:06:29.171Z,42.02
2022-08-05T20:11:31.715Z,42.31
2022-08-05T20:16:39.199Z,43.64
2022-08-05T20:21:46.608Z,43.26
2022-08-05T20:26:53.924Z,43.41
2022-08-05T20:32:01.192Z,43.40
2022-08-05T20:37:17.773Z,43.23
2022-08-05T20:42:15.729Z,43.58
2022-08-05T20:47:32.094Z,43.56
2022-08-05T20:52:30.290Z,43.72
2022-08-05T20:57:44.057Z,43.61
2022-08-05T21:02:51.617Z,43.62
2022-08-05T21:07:52.479Z,43.71
2022-08-05T21:13:11.329Z,43.74
2022-08-05T21:18:06.428Z,43.49
2022-08-05T21:23:14.123Z,43.56
2022-08-05T21:28:23.737Z,43.71
2022-08-05T21:33:36.988Z,45.62
2022-08-05T21:38:38.734Z,45.64
2022-08-05T21:43:42.625Z,46.05
2022-08-05T21:48:49.821Z,46.31
2022-08-05T21:54:03.511Z,46.51
2022-08-05T21:59:07.743Z,47.48
2022-08-05T22:04:13.490Z,48.07
2022-08-05T22:09:21.545Z,48.42
2022-08-05T22:14:35.256Z,48.54
2022-08-05T22:20:00.767Z,47.97
2022-08-05T22:24:51.653Z,47.66
2022-08-05T22:29:47.582Z,47.73
2022-08-05T22:34:54.795Z,48.46
2022-08-05T22:40:02.130Z,48.29
2022-08-05T22:45:09.258Z,49.26
2022-08-05T22:50:20.401Z,49.55
2022-08-05T22:55:23.782Z,49.99
2022-08-05T23:00:31.325Z,49.77
2022-08-05T23:05:38.313Z,49.33
2022-08-05T23:10:46.547Z,49.36
2022-08-05T23:15:53.794Z,49.96
2022-08-05T23:21:01.078Z,49.43
2022-08-05T23:26:08.353Z,49.78
2022-08-05T23:31:17.401Z,50.66
2022-08-05T23:36:28.255Z,50.74
2022-08-05T23:41:30.061Z,50.96
2022-08-05T23:46:39.294Z,50.93
2022-08-05T23:51:44.590Z,50.97
2022-08-05T23:56:51.837Z,51.52
